Time;durP1;ratioP1;P1;durP2;ratioP2;P2;SDS_P1;SDS_P2;PMS_P1;PMS_P2;Temp;Humidity;BMP_temperature;BMP_pressure;BME280_temperature;BME280_humidity;BME280_pressure;Samples;Min_cycle;Max_cycle;Signal;HPM_P1;HPM_P2
2024/01/20 00:02:04;;;;;;;12.50;2.28;;;6.60;99.90;;;;;;5072869;28;20025;-79
2024/01/20 00:04:30;;;;;;;9.20;2.10;;;6.60;99.90;;;;;;5072292;28;20025;-78
2024/01/20 00:06:57;;;;;;;8.35;2.15;;;6.60;99.90;;;;;;5076666;28;20032;-78
2024/01/20 00:09:23;;;;;;;10.02;2.47;;;6.60;99.90;;;;;;5075380;28;20080;-78
2024/01/20 00:11:48;;;;;;;7.05;1.85;;;6.70;99.90;;;;;;5075591;28;20799;-77
2024/01/20 00:14:14;;;;;;;10.13;2.25;;;6.70;99.90;;;;;;5072059;28;20483;-78
2024/01/20 00:16:40;;;;;;;8.63;1.77;;;6.70;99.90;;;;;;5072306;28;20071;-77
2024/01/20 00:19:05;;;;;;;9.30;1.67;;;6.70;99.90;;;;;;5071316;28;20838;-78
2024/01/20 00:21:31;;;;;;;10.45;1.70;;;6.70;99.90;;;;;;5071146;28;20452;-77
2024/01/20 00:23:57;;;;;;;8.63;1.60;;;6.70;99.90;;;;;;5053881;28;20020;-78
2024/01/20 00:26:23;;;;;;;6.93;1.58;;;6.80;99.90;;;;;;5071387;28;20361;-78
2024/01/20 00:28:48;;;;;;;6.75;1.48;;;6.80;99.90;;;;;;5053900;28;20093;-78
2024/01/20 00:31:15;;;;;;;18.17;2.03;;;6.80;99.90;;;;;;5071521;28;20588;-77
2024/01/20 00:33:40;;;;;;;8.38;1.60;;;6.80;99.90;;;;;;5072217;28;20048;-78
2024/01/20 00:36:07;;;;;;;12.43;1.52;;;6.80;99.90;;;;;;5071129;28;20071;-78
2024/01/20 00:38:33;;;;;;;7.53;1.65;;;6.90;99.90;;;;;;5071996;28;20406;-78
2024/01/20 00:40:59;;;;;;;9.98;1.73;;;6.90;99.90;;;;;;5071373;28;20056;-78
2024/01/20 00:43:25;;;;;;;9.02;1.70;;;6.90;99.90;;;;;;5071866;28;20132;-78
2024/01/20 00:45:50;;;;;;;4.97;1.65;;;7.00;99.90;;;;;;5072267;28;20463;-77
2024/01/20 00:48:16;;;;;;;7.75;1.55;;;7.00;99.90;;;;;;5071692;28;20036;-77
2024/01/20 00:50:42;;;;;;;8.20;1.80;;;7.00;99.90;;;;;;5071941;28;20029;-79
2024/01/20 00:53:07;;;;;;;11.93;1.85;;;7.00;99.90;;;;;;5071431;28;20102;-77
2024/01/20 00:55:33;;;;;;;6.93;1.80;;;7.10;99.90;;;;;;5074885;28;20036;-77
2024/01/20 00:57:59;;;;;;;8.80;2.00;;;7.00;99.90;;;;;;5074787;28;20021;-78
2024/01/20 01:00:25;;;;;;;6.68;1.85;;;7.10;99.90;;;;;;5075037;28;20389;-77
2024/01/20 01:02:50;;;;;;;9.45;1.67;;;7.00;99.90;;;;;;5073543;28;20024;-77
2024/01/20 01:05:16;;;;;;;13.10;2.13;;;7.10;99.90;;;;;;5073533;28;20498;-77
2024/01/20 01:07:42;;;;;;;9.13;1.58;;;7.10;99.90;;;;;;5056469;28;20165;-75
2024/01/20 01:10:08;;;;;;;9.32;1.90;;;7.10;99.90;;;;;;5074580;28;20093;-78
2024/01/20 01:12:34;;;;;;;10.73;1.77;;;7.10;99.90;;;;;;5074886;28;20056;-78
2024/01/20 01:15:01;;;;;;;9.00;2.17;;;7.00;99.90;;;;;;5074876;28;20497;-78
2024/01/20 01:17:26;;;;;;;10.85;1.92;;;7.00;99.90;;;;;;5074489;28;20032;-79
2024/01/20 01:19:52;;;;;;;7.53;1.45;;;7.10;99.90;;;;;;5074924;28;20488;-78
2024/01/20 01:22:18;;;;;;;8.20;2.15;;;7.10;99.90;;;;;;5073100;28;20028;-78
2024/01/20 01:24:44;;;;;;;7.95;1.40;;;7.20;99.90;;;;;;5073610;28;20024;-79
2024/01/20 01:27:09;;;;;;;8.90;2.10;;;7.20;99.90;;;;;;5073577;28;20374;-78
2024/01/20 01:29:35;;;;;;;16.10;1.70;;;7.20;99.90;;;;;;5074679;28;20028;-78
2024/01/20 01:32:01;;;;;;;6.95;1.75;;;7.20;99.90;;;;;;5056357;28;20342;-78
2024/01/20 01:34:27;;;;;;;11.63;1.50;;;7.20;99.90;;;;;;5072650;28;20490;-78
2024/01/20 01:36:54;;;;;;;7.00;1.48;;;7.30;99.90;;;;;;5073863;28;20118;-78
2024/01/20 01:39:21;;;;;;;10.77;1.55;;;7.30;99.90;;;;;;5072803;28;20032;-78
2024/01/20 01:41:47;;;;;;;8.48;2.30;;;7.20;99.90;;;;;;5056802;28;20043;-78
2024/01/20 01:44:12;;;;;;;16.23;2.20;;;7.20;99.90;;;;;;5056136;28;20025;-78
2024/01/20 01:46:39;;;;;;;13.13;1.60;;;7.10;99.90;;;;;;5056887;28;20070;-78
2024/01/20 01:49:05;;;;;;;10.32;1.88;;;7.10;99.90;;;;;;5073685;28;20128;-79
2024/01/20 01:51:31;;;;;;;8.90;2.00;;;7.10;99.90;;;;;;5056292;28;20366;-78
2024/01/20 01:54:05;;;;;;;7.05;1.92;;;7.10;99.90;;;;;;5074177;28;20020;-79
2024/01/20 01:56:31;;;;;;;15.68;2.00;;;7.10;99.90;;;;;;5074565;28;20101;-78
2024/01/20 01:58:58;;;;;;;9.13;1.65;;;7.10;99.90;;;;;;5074759;28;20031;-79
2024/01/20 02:01:24;;;;;;;14.05;2.10;;;7.20;99.90;;;;;;5077457;28;20025;-79
2024/01/20 02:03:50;;;;;;;11.00;2.60;;;7.20;99.90;;;;;;5060090;28;20098;-78
2024/01/20 02:06:19;;;;;;;9.98;2.47;;;7.20;99.90;;;;;;5075917;28;20441;-79
2024/01/20 02:08:45;;;;;;;13.13;2.00;;;7.20;99.90;;;;;;5076024;28;20047;-78
2024/01/20 02:11:11;;;;;;;8.98;2.10;;;7.20;99.90;;;;;;5075456;28;20032;-78
2024/01/20 02:13:36;;;;;;;15.80;2.00;;;7.20;99.90;;;;;;5056430;28;20021;-79
2024/01/20 02:16:03;;;;;;;11.82;2.63;;;7.10;99.90;;;;;;5074292;28;20492;-79
2024/01/20 02:18:29;;;;;;;13.20;1.73;;;7.10;99.90;;;;;;5056178;28;20036;-78
2024/01/20 02:20:55;;;;;;;8.80;1.48;;;7.10;99.90;;;;;;5055310;28;20116;-78
2024/01/20 02:23:21;;;;;;;16.08;2.35;;;7.20;99.90;;;;;;5073168;28;20039;-78
2024/01/20 02:25:47;;;;;;;12.57;2.35;;;7.30;99.90;;;;;;5073763;28;20033;-79
2024/01/20 02:28:14;;;;;;;8.55;1.98;;;7.30;99.90;;;;;;5072323;28;20024;-79
2024/01/20 02:30:41;;;;;;;10.68;2.03;;;7.30;99.90;;;;;;5072356;28;20032;-78
2024/01/20 02:33:08;;;;;;;11.82;1.80;;;7.30;99.90;;;;;;5072682;28;20442;-78
2024/01/20 02:35:34;;;;;;;10.07;1.80;;;7.30;99.90;;;;;;5072999;28;20090;-78
2024/01/20 02:38:01;;;;;;;12.80;1.98;;;7.20;99.90;;;;;;5073209;28;20505;-78
2024/01/20 02:40:27;;;;;;;11.73;1.90;;;7.20;99.90;;;;;;5073664;28;20026;-79
2024/01/20 02:42:53;;;;;;;14.52;1.88;;;7.10;99.90;;;;;;5074106;28;20025;-78
2024/01/20 02:45:18;;;;;;;11.07;1.52;;;7.00;99.90;;;;;;5055138;28;20027;-79
2024/01/20 02:47:44;;;;;;;8.38;1.67;;;7.00;99.90;;;;;;5074387;28;20025;-78
2024/01/20 02:50:11;;;;;;;6.45;1.20;;;7.00;99.90;;;;;;5072718;28;20020;-78
2024/01/20 02:52:36;;;;;;;4.03;1.15;;;7.00;99.90;;;;;;5072976;28;20028;-79
2024/01/20 02:55:02;;;;;;;11.52;2.47;;;7.00;99.90;;;;;;5072608;28;20110;-81
2024/01/20 02:57:28;;;;;;;11.57;2.05;;;7.00;99.90;;;;;;5073562;28;20381;-81
2024/01/20 02:59:54;;;;;;;8.93;1.77;;;6.90;99.90;;;;;;5072960;28;20047;-81
2024/01/20 03:02:20;;;;;;;10.68;2.05;;;6.80;99.90;;;;;;5072821;28;20600;-81
2024/01/20 03:04:45;;;;;;;11.38;1.92;;;6.80;99.90;;;;;;5073656;28;20499;-80
2024/01/20 03:07:11;;;;;;;11.85;3.00;;;6.80;99.90;;;;;;5055035;28;20036;-80
2024/01/20 03:09:37;;;;;;;13.68;2.10;;;6.80;99.90;;;;;;5074090;28;20035;-80
2024/01/20 03:12:03;;;;;;;9.02;2.10;;;6.80;99.90;;;;;;5055241;28;20453;-79
2024/01/20 03:14:28;;;;;;;12.40;2.97;;;6.70;99.90;;;;;;5074105;28;20097;-80
2024/01/20 03:16:54;;;;;;;12.40;2.55;;;6.70;99.90;;;;;;5055547;28;20122;-80
2024/01/20 03:19:20;;;;;;;13.48;1.90;;;6.80;99.90;;;;;;5074554;28;20032;-81
2024/01/20 03:21:46;;;;;;;15.27;2.67;;;6.80;99.90;;;;;;5074444;28;20147;-81
2024/01/20 03:24:11;;;;;;;11.20;2.25;;;6.80;99.90;;;;;;5074636;28;20054;-81
2024/01/20 03:26:37;;;;;;;16.55;2.05;;;6.80;99.90;;;;;;5074841;28;20028;-84
2024/01/20 03:29:04;;;;;;;13.15;2.72;;;6.80;99.90;;;;;;5055256;28;20071;-83
2024/01/20 03:31:30;;;;;;;27.70;2.80;;;6.80;99.90;;;;;;5073867;28;20347;-82
2024/01/20 03:33:56;;;;;;;18.73;2.78;;;6.80;99.90;;;;;;5073667;28;20020;-82
2024/01/20 03:36:21;;;;;;;19.67;3.10;;;6.80;99.90;;;;;;5073134;28;20626;-83
2024/01/20 03:38:49;;;;;;;12.95;2.85;;;6.80;99.90;;;;;;5072923;28;20409;-85
2024/01/20 03:41:15;;;;;;;18.23;2.60;;;6.80;99.90;;;;;;5054552;28;20035;-84
2024/01/20 03:43:41;;;;;;;18.48;3.22;;;6.90;99.90;;;;;;5054718;28;20032;-83
2024/01/20 03:46:07;;;;;;;15.98;3.00;;;6.80;99.90;;;;;;5073093;28;20031;-83
2024/01/20 03:48:32;;;;;;;15.88;3.08;;;6.90;99.90;;;;;;5072531;28;20094;-83
2024/01/20 03:50:58;;;;;;;16.77;2.70;;;6.90;99.90;;;;;;5054674;28;20070;-84
2024/01/20 03:53:24;;;;;;;20.17;3.47;;;6.90;99.90;;;;;;5054392;28;20021;-81
2024/01/20 03:55:50;;;;;;;24.10;3.38;;;6.90;99.90;;;;;;5072338;28;20084;-81
2024/01/20 03:58:15;;;;;;;17.52;3.35;;;6.90;99.90;;;;;;5054487;28;20027;-81
2024/01/20 04:00:43;;;;;;;19.27;2.90;;;6.90;99.90;;;;;;5073042;28;20450;-81
2024/01/20 04:03:08;;;;;;;18.77;2.85;;;7.00;99.90;;;;;;5072752;28;20062;-81
2024/01/20 04:05:34;;;;;;;19.80;3.28;;;6.90;99.90;;;;;;5054923;28;20474;-80
2024/01/20 04:08:00;;;;;;;13.43;2.35;;;7.00;99.90;;;;;;5073144;28;20025;-81
2024/01/20 04:10:26;;;;;;;20.70;3.70;;;6.90;99.90;;;;;;5073955;28;20075;-80
2024/01/20 04:12:52;;;;;;;12.30;2.47;;;7.00;99.90;;;;;;5074283;28;20051;-82
2024/01/20 04:15:17;;;;;;;16.25;2.80;;;7.00;99.90;;;;;;5056972;28;20101;-83
2024/01/20 04:17:43;;;;;;;20.40;2.28;;;7.00;99.90;;;;;;5054705;28;20514;-82
2024/01/20 04:20:09;;;;;;;18.77;3.17;;;6.90;99.90;;;;;;5071686;28;20104;-83
2024/01/20 04:22:35;;;;;;;13.65;3.10;;;6.90;99.90;;;;;;5074551;28;20060;-81
2024/01/20 04:25:01;;;;;;;15.40;2.97;;;6.80;99.90;;;;;;5056374;28;20031;-81
2024/01/20 04:27:26;;;;;;;11.27;2.67;;;6.80;99.90;;;;;;5073988;28;20078;-80
2024/01/20 04:29:52;;;;;;;16.80;2.28;;;6.90;99.90;;;;;;5077294;28;20429;-80
2024/01/20 04:32:18;;;;;;;16.40;2.60;;;6.80;99.90;;;;;;5075673;28;20024;-83
2024/01/20 04:34:43;;;;;;;11.38;2.00;;;6.80;99.90;;;;;;5074675;28;20029;-80
2024/01/20 04:37:09;;;;;;;10.35;2.10;;;6.90;99.90;;;;;;5074817;28;20029;-81
2024/01/20 04:39:35;;;;;;;10.48;1.92;;;6.80;99.90;;;;;;5076290;28;20533;-81
2024/01/20 04:42:00;;;;;;;12.63;2.58;;;6.80;99.90;;;;;;5058649;28;20107;-81
2024/01/20 04:44:26;;;;;;;13.65;2.30;;;6.80;99.90;;;;;;5077040;28;20035;-82
2024/01/20 04:46:52;;;;;;;10.20;2.00;;;6.80;99.90;;;;;;5076910;28;20029;-81
2024/01/20 04:49:18;;;;;;;8.65;1.60;;;6.80;99.90;;;;;;5058310;28;20028;-81
2024/01/20 04:51:44;;;;;;;15.32;1.73;;;6.80;99.90;;;;;;5075371;28;20454;-83
2024/01/20 04:54:10;;;;;;;10.82;1.98;;;6.80;99.90;;;;;;5075547;28;20129;-79
2024/01/20 04:56:36;;;;;;;9.13;1.67;;;6.80;99.90;;;;;;5076010;28;20145;-79
2024/01/20 04:59:01;;;;;;;12.27;2.33;;;6.80;99.90;;;;;;5057627;28;20039;-79
2024/01/20 05:01:27;;;;;;;8.52;1.95;;;6.70;99.90;;;;;;5075441;28;20016;-80
2024/01/20 05:03:53;;;;;;;6.43;1.38;;;6.70;99.90;;;;;;5075295;28;20025;-81
2024/01/20 05:06:19;;;;;;;5.18;1.48;;;6.70;99.90;;;;;;5057357;28;20036;-82
2024/01/20 05:08:44;;;;;;;15.43;2.40;;;6.70;99.90;;;;;;5075733;28;20063;-80
2024/01/20 05:11:10;;;;;;;8.70;1.30;;;6.70;99.90;;;;;;5056988;28;20029;-81
2024/01/20 05:13:36;;;;;;;8.85;1.48;;;6.70;99.90;;;;;;5075233;28;20044;-80
2024/01/20 05:16:01;;;;;;;8.27;1.35;;;6.70;99.90;;;;;;5075995;28;20032;-80
2024/01/20 05:18:27;;;;;;;11.10;2.15;;;6.70;99.90;;;;;;5075237;28;20047;-80
2024/01/20 05:20:53;;;;;;;12.25;2.03;;;6.80;99.90;;;;;;5075719;28;20028;-79
2024/01/20 05:23:19;;;;;;;11.70;2.22;;;6.80;99.90;;;;;;5074537;28;20090;-79
2024/01/20 05:25:44;;;;;;;10.02;1.83;;;6.80;99.90;;;;;;5057507;28;20105;-80
2024/01/20 05:28:10;;;;;;;8.80;1.63;;;6.70;99.90;;;;;;5075842;28;20533;-79
2024/01/20 05:30:36;;;;;;;11.60;1.80;;;6.80;99.90;;;;;;5075983;28;20025;-79
2024/01/20 05:33:02;;;;;;;7.65;1.30;;;6.80;99.90;;;;;;5075549;28;20456;-79
2024/01/20 05:35:27;;;;;;;8.10;1.55;;;6.80;99.90;;;;;;5074501;28;20047;-79
2024/01/20 05:37:53;;;;;;;5.20;1.23;;;6.70;99.90;;;;;;5076545;28;20047;-80
2024/01/20 05:40:19;;;;;;;10.50;1.67;;;6.80;99.90;;;;;;5072545;28;20056;-79
2024/01/20 05:42:44;;;;;;;9.82;1.90;;;6.80;99.90;;;;;;5072943;28;20029;-80
2024/01/20 05:45:10;;;;;;;10.80;1.95;;;6.80;99.90;;;;;;5072853;28;20131;-80
2024/01/20 05:47:36;;;;;;;10.65;1.58;;;6.80;99.90;;;;;;5072480;28;20127;-79
2024/01/20 05:50:05;;;;;;;12.73;1.92;;;6.90;99.90;;;;;;5073287;28;20486;-80
2024/01/20 05:52:31;;;;;;;12.43;1.90;;;6.90;99.90;;;;;;5072770;28;20020;-80
2024/01/20 05:54:56;;;;;;;12.70;1.90;;;6.90;99.90;;;;;;5054302;28;20071;-79
2024/01/20 05:57:23;;;;;;;11.85;2.05;;;6.90;99.90;;;;;;5072191;28;20075;-79
2024/01/20 05:59:49;;;;;;;5.72;1.35;;;7.00;99.90;;;;;;5072631;28;20107;-79
2024/01/20 06:02:15;;;;;;;8.25;1.88;;;7.00;99.90;;;;;;5071883;28;20465;-80
2024/01/20 06:04:41;;;;;;;8.43;1.90;;;7.00;99.90;;;;;;5072614;28;20025;-79
2024/01/20 06:07:07;;;;;;;13.65;1.90;;;7.10;99.90;;;;;;5054756;28;20032;-79
2024/01/20 06:09:32;;;;;;;14.65;2.10;;;7.10;99.90;;;;;;5072093;28;20082;-79
2024/01/20 06:11:58;;;;;;;11.15;2.33;;;7.10;99.90;;;;;;5072443;28;20024;-79
2024/01/20 06:14:24;;;;;;;7.18;1.70;;;7.10;99.90;;;;;;5072666;28;20025;-79
2024/01/20 06:16:49;;;;;;;16.27;2.55;;;7.10;99.90;;;;;;5072080;28;20056;-78
2024/01/20 06:19:15;;;;;;;9.70;1.80;;;7.10;99.90;;;;;;5072435;28;20028;-81
2024/01/20 06:21:41;;;;;;;13.70;2.05;;;7.20;99.90;;;;;;5072231;28;20028;-81
2024/01/20 06:24:07;;;;;;;10.23;2.10;;;7.20;99.90;;;;;;5072007;28;20146;-81
2024/01/20 06:26:33;;;;;;;10.95;1.88;;;7.20;99.90;;;;;;5053050;28;20028;-80
2024/01/20 06:28:58;;;;;;;15.65;2.45;;;7.20;99.90;;;;;;5072035;28;20351;-80
2024/01/20 06:31:26;;;;;;;12.93;2.38;;;7.30;99.90;;;;;;5053579;28;20036;-80
2024/01/20 06:33:54;;;;;;;11.90;1.75;;;7.30;99.90;;;;;;5054523;28;20100;-81
2024/01/20 06:36:21;;;;;;;14.55;2.47;;;7.30;99.90;;;;;;5071215;28;20435;-81
2024/01/20 06:38:48;;;;;;;8.20;1.67;;;7.30;99.90;;;;;;5072004;28;20399;-80
2024/01/20 06:41:17;;;;;;;8.02;1.50;;;7.30;99.90;;;;;;5053753;28;20327;-80
2024/01/20 06:43:43;;;;;;;12.38;2.20;;;7.30;99.90;;;;;;5071890;28;20024;-80
2024/01/20 06:46:09;;;;;;;12.30;2.40;;;7.40;99.90;;;;;;5072963;28;20089;-80
2024/01/20 06:48:35;;;;;;;18.33;3.38;;;7.40;99.90;;;;;;5071691;28;20024;-80
2024/01/20 06:51:03;;;;;;;15.27;2.67;;;7.40;99.90;;;;;;5072570;28;20442;-81
2024/01/20 06:53:29;;;;;;;12.05;1.90;;;7.40;99.90;;;;;;5054057;28;20121;-80
2024/01/20 06:55:55;;;;;;;14.85;2.50;;;7.40;99.90;;;;;;5071479;28;20048;-80
2024/01/20 06:58:21;;;;;;;11.82;1.95;;;7.40;99.90;;;;;;5071084;28;20323;-80
2024/01/20 07:00:47;;;;;;;8.68;1.98;;;7.40;99.90;;;;;;5071466;28;20036;-79
2024/01/20 07:03:14;;;;;;;9.90;1.83;;;7.50;99.90;;;;;;5071414;28;20048;-80
2024/01/20 07:05:40;;;;;;;11.95;2.22;;;7.50;99.90;;;;;;5071844;28;20474;-80
2024/01/20 07:08:06;;;;;;;8.90;1.70;;;7.50;99.90;;;;;;5071647;28;20028;-80
2024/01/20 07:10:32;;;;;;;15.50;1.92;;;7.50;99.90;;;;;;5070695;28;20025;-80
2024/01/20 07:12:58;;;;;;;10.00;2.00;;;7.50;99.90;;;;;;5071438;28;20017;-79
2024/01/20 07:15:24;;;;;;;17.63;1.88;;;7.50;99.90;;;;;;5070688;28;20029;-80
2024/01/20 07:17:50;;;;;;;9.00;2.25;;;7.50;99.90;;;;;;5053731;28;20029;-80
2024/01/20 07:20:16;;;;;;;10.98;1.98;;;7.60;99.90;;;;;;5071385;28;20074;-79
2024/01/20 07:22:42;;;;;;;8.27;1.88;;;7.60;99.90;;;;;;5071499;28;20028;-80
2024/01/20 07:25:08;;;;;;;8.68;1.75;;;7.60;99.90;;;;;;5071771;28;20373;-80
2024/01/20 07:27:34;;;;;;;10.68;1.83;;;7.50;99.90;;;;;;5070426;28;20021;-80
2024/01/20 07:30:00;;;;;;;14.90;2.00;;;7.50;99.90;;;;;;5053176;28;20052;-80
2024/01/20 07:32:26;;;;;;;14.63;1.98;;;7.50;99.90;;;;;;5070819;28;20048;-79
2024/01/20 07:34:52;;;;;;;10.10;2.05;;;7.50;99.90;;;;;;5071119;28;20029;-80
2024/01/20 07:37:18;;;;;;;16.75;2.60;;;7.50;99.90;;;;;;5052645;28;20036;-80
2024/01/20 07:39:43;;;;;;;14.00;1.98;;;7.40;99.90;;;;;;5070921;28;20021;-79
2024/01/20 07:42:10;;;;;;;11.60;2.17;;;7.50;99.90;;;;;;5071224;28;20044;-80
2024/01/20 07:44:36;;;;;;;12.63;1.95;;;7.60;99.90;;;;;;5070393;28;20036;-79
2024/01/20 07:47:02;;;;;;;13.70;1.90;;;7.60;99.90;;;;;;5070490;28;20048;-80
2024/01/20 07:49:28;;;;;;;6.47;1.70;;;7.60;99.90;;;;;;5070433;28;20458;-80
2024/01/20 07:51:53;;;;;;;9.98;2.40;;;7.60;99.90;;;;;;5053673;28;20020;-81
2024/01/20 07:54:19;;;;;;;8.70;2.00;;;7.60;99.90;;;;;;5071588;28;20069;-80
2024/01/20 07:56:45;;;;;;;14.00;2.35;;;7.70;99.90;;;;;;5071313;28;20037;-79
2024/01/20 07:59:11;;;;;;;10.20;2.25;;;7.70;99.90;;;;;;5070974;28;20120;-80
2024/01/20 08:01:36;;;;;;;11.63;1.67;;;7.70;99.90;;;;;;5070729;28;20426;-79
2024/01/20 08:04:03;;;;;;;15.50;2.17;;;7.70;99.90;;;;;;5071281;28;20029;-79
2024/01/20 08:06:28;;;;;;;12.55;2.13;;;7.70;99.90;;;;;;5052574;28;20125;-79
2024/01/20 08:08:54;;;;;;;16.73;2.55;;;7.70;99.90;;;;;;5070953;28;20021;-80
2024/01/20 08:11:20;;;;;;;12.00;2.17;;;7.80;99.90;;;;;;5052682;28;20049;-79
2024/01/20 08:13:46;;;;;;;17.27;2.50;;;7.70;99.90;;;;;;5070716;28;20515;-79
2024/01/20 08:16:11;;;;;;;10.75;2.05;;;7.70;99.90;;;;;;5071587;28;20089;-79
2024/01/20 08:18:37;;;;;;;10.13;1.88;;;7.80;99.90;;;;;;5071551;28;20110;-79
2024/01/20 08:21:06;;;;;;;11.15;1.90;;;7.80;99.90;;;;;;5071836;28;20431;-80
2024/01/20 08:23:33;;;;;;;7.68;2.05;;;7.80;99.90;;;;;;5052877;28;20036;-80
2024/01/20 08:25:59;;;;;;;10.93;1.95;;;7.90;99.90;;;;;;5071304;28;20032;-80
2024/01/20 08:28:25;;;;;;;16.15;2.58;;;7.90;99.90;;;;;;5072423;28;20025;-80
2024/01/20 08:30:50;;;;;;;10.45;1.80;;;7.90;99.90;;;;;;5070455;28;20510;-79
2024/01/20 08:33:16;;;;;;;9.95;1.63;;;7.90;99.90;;;;;;5070304;28;20024;-80
2024/01/20 08:35:42;;;;;;;12.35;2.20;;;7.90;99.90;;;;;;5069598;28;20164;-80
2024/01/20 08:38:08;;;;;;;9.68;2.15;;;8.00;99.90;;;;;;5070396;28;20213;-80
2024/01/20 08:40:33;;;;;;;15.60;2.08;;;8.00;99.90;;;;;;5069698;28;20426;-80
2024/01/20 08:42:59;;;;;;;13.43;2.08;;;8.10;99.90;;;;;;5070144;28;20025;-79
2024/01/20 08:45:25;;;;;;;14.18;2.65;;;8.10;99.90;;;;;;5069826;28;20028;-79
2024/01/20 08:47:51;;;;;;;10.55;2.25;;;8.10;99.90;;;;;;5070518;28;20540;-80
2024/01/20 08:50:16;;;;;;;11.52;2.03;;;8.10;99.90;;;;;;5070201;28;20381;-79
2024/01/20 08:52:42;;;;;;;11.60;1.73;;;8.10;99.90;;;;;;5069954;28;20036;-79
2024/01/20 08:55:08;;;;;;;6.80;1.70;;;8.20;99.90;;;;;;5070206;28;20055;-79
2024/01/20 08:57:34;;;;;;;9.60;1.83;;;8.20;99.90;;;;;;5069509;28;20043;-78
2024/01/20 09:00:00;;;;;;;9.43;1.60;;;8.20;99.90;;;;;;5069797;28;20477;-79
2024/01/20 09:02:26;;;;;;;13.48;1.83;;;8.20;99.90;;;;;;5069643;28;20029;-79
2024/01/20 09:04:52;;;;;;;10.98;1.70;;;8.20;99.90;;;;;;5069919;28;20054;-79
2024/01/20 09:07:18;;;;;;;10.38;2.13;;;8.10;99.90;;;;;;5073303;28;20047;-81
2024/01/20 09:09:44;;;;;;;11.80;1.67;;;8.10;99.90;;;;;;5076242;28;20103;-80
2024/01/20 09:12:10;;;;;;;7.90;1.77;;;8.20;99.90;;;;;;5074033;28;20165;-79
2024/01/20 09:14:36;;;;;;;5.47;1.40;;;8.10;99.90;;;;;;5070841;28;20101;-79
2024/01/20 09:17:02;;;;;;;6.70;1.48;;;8.10;99.90;;;;;;5073976;28;20086;-79
2024/01/20 09:19:28;;;;;;;5.95;1.80;;;8.20;99.90;;;;;;5073871;28;20501;-79
2024/01/20 09:21:53;;;;;;;9.68;1.85;;;8.20;99.90;;;;;;5074276;28;20040;-80
2024/01/20 09:24:19;;;;;;;8.15;2.08;;;8.20;99.90;;;;;;5056303;28;20029;-80
2024/01/20 09:26:45;;;;;;;10.38;1.70;;;8.30;99.90;;;;;;5055552;28;20036;-80
2024/01/20 09:29:11;;;;;;;13.43;2.30;;;8.30;99.90;;;;;;5073706;28;20161;-81
2024/01/20 09:31:37;;;;;;;6.38;1.55;;;8.40;99.90;;;;;;5074229;28;20025;-81
2024/01/20 09:34:03;;;;;;;5.65;1.80;;;8.30;99.90;;;;;;5078764;28;20036;-80
2024/01/20 09:36:29;;;;;;;9.35;1.23;;;8.40;99.90;;;;;;5059941;28;20039;-80
2024/01/20 09:38:54;;;;;;;5.60;1.67;;;8.40;99.90;;;;;;5058907;28;20037;-80
2024/01/20 09:41:20;;;;;;;6.13;1.60;;;8.40;99.90;;;;;;5076792;28;20024;-82
2024/01/20 09:43:47;;;;;;;5.70;1.33;;;8.60;99.90;;;;;;5076206;28;20032;-81
2024/01/20 09:46:14;;;;;;;4.38;1.38;;;8.60;99.90;;;;;;5076512;28;20119;-80
2024/01/20 09:48:39;;;;;;;8.15;1.40;;;8.60;99.90;;;;;;5076676;28;20472;-79
2024/01/20 09:51:07;;;;;;;3.80;1.10;;;8.60;99.90;;;;;;5059937;28;20097;-81
2024/01/20 09:53:34;;;;;;;6.85;0.90;;;8.70;99.90;;;;;;5081095;28;20047;-80
2024/01/20 09:56:00;;;;;;;8.88;1.10;;;8.70;99.90;;;;;;5080072;28;20091;-80
2024/01/20 09:58:28;;;;;;;4.65;1.25;;;8.70;99.90;;;;;;5062589;28;20092;-79
2024/01/20 10:00:55;;;;;;;4.30;0.85;;;8.70;99.90;;;;;;5079753;28;20032;-80
2024/01/20 10:03:25;;;;;;;5.32;1.02;;;8.70;99.90;;;;;;5080198;28;20020;-80
2024/01/20 10:05:52;;;;;;;4.70;1.27;;;8.70;99.90;;;;;;5078782;28;20033;-81
2024/01/20 10:08:18;;;;;;;4.15;0.93;;;8.80;99.90;;;;;;5078340;28;20092;-81
2024/01/20 10:10:43;;;;;;;4.55;1.00;;;8.70;99.90;;;;;;5060321;28;20101;-81
2024/01/20 10:13:09;;;;;;;3.25;1.05;;;8.80;99.90;;;;;;5078379;28;20024;-82
2024/01/20 10:15:36;;;;;;;4.40;0.93;;;8.80;99.90;;;;;;5077408;28;20534;-81
2024/01/20 10:18:10;;;;;;;2.42;0.80;;;8.90;99.90;;;;;;5077641;28;20161;-81
2024/01/20 10:20:36;;;;;;;4.45;0.93;;;8.90;99.90;;;;;;5077426;28;20127;-80
2024/01/20 10:23:04;;;;;;;3.85;1.02;;;9.00;99.90;;;;;;5077178;28;20106;-81
2024/01/20 10:25:30;;;;;;;2.30;0.70;;;9.00;99.90;;;;;;5075839;28;20039;-82
2024/01/20 10:27:56;;;;;;;4.57;1.05;;;9.00;99.90;;;;;;5074747;28;20377;-81
2024/01/20 10:30:22;;;;;;;2.47;0.63;;;9.00;99.90;;;;;;5040066;28;20032;-82
2024/01/20 10:32:48;;;;;;;3.15;1.17;;;9.10;99.90;;;;;;5075328;28;20142;-84
2024/01/20 10:35:15;;;;;;;2.20;0.73;;;9.10;99.90;;;;;;5075572;28;20028;-82
2024/01/20 10:37:46;;;;;;;4.43;0.77;;;9.20;99.90;;;;;;5075272;28;20173;-83
2024/01/20 10:40:13;;;;;;;5.13;0.95;;;9.20;99.90;;;;;;5056286;28;20119;-81
2024/01/20 10:42:47;;;;;;;2.42;1.05;;;9.30;99.90;;;;;;5074020;28;20016;-82
2024/01/20 10:45:17;;;;;;;3.47;0.90;;;9.40;99.90;;;;;;5074182;28;20044;-80
2024/01/20 10:47:49;;;;;;;3.83;1.20;;;9.40;99.90;;;;;;5074132;28;20112;-80
2024/01/20 10:50:16;;;;;;;3.60;0.93;;;9.50;99.90;;;;;;5056340;28;20024;-80
2024/01/20 10:52:42;;;;;;;3.25;1.00;;;9.50;99.90;;;;;;5074635;28;20039;-80
2024/01/20 10:55:09;;;;;;;5.82;1.50;;;9.50;99.90;;;;;;5076026;28;20045;-81
2024/01/20 10:57:35;;;;;;;2.75;0.98;;;9.50;99.90;;;;;;5075943;28;20111;-80
2024/01/20 11:00:04;;;;;;;1.92;1.00;;;9.50;99.90;;;;;;5074679;28;20502;-81
2024/01/20 11:02:30;;;;;;;5.85;1.45;;;9.40;99.90;;;;;;5074354;28;20047;-82
2024/01/20 11:04:56;;;;;;;4.60;1.35;;;9.50;99.90;;;;;;5056774;28;20024;-81
2024/01/20 11:07:28;;;;;;;3.47;1.17;;;9.50;99.90;;;;;;5056061;28;20068;-82
2024/01/20 11:09:55;;;;;;;;;;;9.50;99.90;;;;;;5075654;28;20039;-78
2024/01/20 11:12:22;;;;;;;5.28;2.28;;;9.60;99.90;;;;;;5074813;28;20265;-78
2024/01/20 11:14:53;;;;;;;7.50;2.28;;;9.60;99.90;;;;;;5074204;28;20461;-78
2024/01/20 11:17:20;;;;;;;6.25;2.33;;;9.60;99.90;;;;;;5056327;28;20029;-78
2024/01/20 11:19:46;;;;;;;6.45;3.00;;;9.60;99.90;;;;;;5074610;28;20033;-80
2024/01/20 11:22:38;;;;;;;4.90;2.08;;;9.70;99.90;;;;;;5074902;28;20385;-81
2024/01/20 11:25:08;;;;;;;4.97;1.63;;;9.80;99.90;;;;;;5074761;28;20051;-80
2024/01/20 11:27:47;;;;;;;5.30;1.40;;;9.80;99.90;;;;;;5054294;28;20355;-81
2024/01/20 11:30:23;;;;;;;4.00;1.45;;;9.80;99.90;;;;;;5054660;28;20040;-80
2024/01/20 11:32:49;;;;;;;4.75;1.52;;;9.80;99.90;;;;;;5035450;28;20462;-78
2024/01/20 11:35:15;;;;;;;5.22;1.25;;;9.90;99.90;;;;;;5035949;28;20067;-80
2024/01/20 11:37:43;;;;;;;3.83;1.27;;;9.90;99.90;;;;;;5034406;28;20070;-79
2024/01/20 11:40:10;;;;;;;3.63;1.25;;;9.90;99.90;;;;;;5034965;28;20479;-80
2024/01/20 11:42:36;;;;;;;3.58;1.08;;;9.80;99.90;;;;;;5053149;28;20044;-80
2024/01/20 11:45:03;;;;;;;4.00;1.10;;;9.90;99.90;;;;;;5034982;28;20083;-80
2024/01/20 11:47:30;;;;;;;4.65;1.40;;;9.90;99.90;;;;;;5034491;28;20098;-81
2024/01/20 11:49:56;;;;;;;4.45;1.33;;;9.90;99.90;;;;;;5036448;28;20033;-80
2024/01/20 11:52:22;;;;;;;3.28;1.02;;;9.90;99.90;;;;;;5035570;28;20056;-80
2024/01/20 11:54:48;;;;;;;3.63;1.10;;;9.90;99.90;;;;;;5053878;28;20045;-80
2024/01/20 11:57:26;;;;;;;2.40;0.90;;;9.90;99.90;;;;;;5036707;28;20371;-80
2024/01/20 11:59:53;;;;;;;4.05;0.80;;;10.00;99.90;;;;;;5053482;28;20132;-81
2024/01/20 12:02:20;;;;;;;3.70;0.85;;;9.90;99.90;;;;;;5053348;28;20056;-81
2024/01/20 12:04:46;;;;;;;5.70;0.95;;;9.90;99.90;;;;;;5053760;28;20032;-81
2024/01/20 12:07:12;;;;;;;3.33;0.77;;;10.00;99.90;;;;;;5055466;28;20386;-81
2024/01/20 12:09:43;;;;;;;4.25;1.00;;;10.00;99.90;;;;;;5035973;28;20416;-80
2024/01/20 12:12:09;;;;;;;3.90;1.90;;;10.00;99.90;;;;;;5036833;28;20117;-79
2024/01/20 12:14:35;;;;;;;1.75;0.85;;;10.10;99.90;;;;;;5036822;28;20037;-81
2024/01/20 12:17:00;;;;;;;4.68;1.00;;;10.10;99.90;;;;;;5054579;28;20489;-79
2024/01/20 12:19:27;;;;;;;3.00;0.82;;;10.20;99.90;;;;;;5036624;28;20036;-80
2024/01/20 12:21:52;;;;;;;1.75;0.52;;;10.30;99.90;;;;;;5037688;28;20031;-79
2024/01/20 12:24:18;;;;;;;2.80;1.92;;;10.40;99.90;;;;;;5059093;28;20466;-80
2024/01/20 12:26:44;;;;;;;2.33;0.63;;;10.40;99.90;;;;;;5075414;28;20109;-81
2024/01/20 12:29:09;;;;;;;2.40;0.80;;;10.40;99.90;;;;;;5059591;28;20021;-81
2024/01/20 12:31:35;;;;;;;0.95;0.43;;;10.40;99.90;;;;;;5074922;28;20131;-81
2024/01/20 12:34:01;;;;;;;0.75;0.43;;;10.50;99.90;;;;;;5057980;28;20371;-81
2024/01/20 12:36:27;;;;;;;2.72;0.70;;;10.40;99.90;;;;;;5057296;28;20036;-81
2024/01/20 12:38:53;;;;;;;2.13;0.80;;;10.40;99.90;;;;;;5075968;28;20067;-82
2024/01/20 12:41:19;;;;;;;0.45;0.40;;;10.40;99.90;;;;;;5059273;28;20415;-82
2024/01/20 12:43:49;;;;;;;2.28;0.60;;;10.40;99.90;;;;;;5056746;28;20473;-81
2024/01/20 12:46:16;;;;;;;1.67;0.50;;;10.40;99.90;;;;;;5057184;28;20054;-82
2024/01/20 12:48:42;;;;;;;1.45;0.55;;;10.30;99.90;;;;;;5074682;28;20071;-81